aviador You're here:

KAKR Decoded Metar

AKRON in OH, USA
Report Time2017-09-24 22:54:00
UTC Time2017-09-24 23:09:18
Flight Rules vfr VFR
Wind100° at 03 kt
W.Decomp.*RWY 07: 2.4 kt HW 1.8 kt RCW
RWY 19: 0.4 kt HW 3 kt LCW
W.Rank100° ranks 34
Current wind is below 100° avg. (4.6)
Visibility9999 m
Phenomena:N/A
Clouds:N/A
Expected CloudBase > 6,400 ft AGL from Temp-Dew spread
CeilingNone
Temp31°C (ISA +18)
Dew Point15°C (38% RH)
Heat Index30.6°C
QNH1019 hPa
Density Alt3,317 ft
Elevation1,191 ft
Report Wrong Elevation
Raw Report
KAKR 242254Z AUTO 10003KT 10SM CLR 31/15 A3009 RMK AO2 SLP180
T03110150=

Extra information for KAKR:More info

Metar Taf Metar & Taf Last 4 Metars F.Rules Stats Wind Profile Meteogram Temp Stats Airport Information Weather charts Add Link Nearby VenuesMetar ALERT Operation Metar Decoded Social comments

AIRNAV info for KAKR